sensor_id;sensor_type;location;lat;lon;timestamp;temperature;humidity
63976;DHT22;50167;47.958;21.780;2023-06-26T00:01:29;22.92;58.74
63976;DHT22;50167;47.958;21.780;2023-06-26T00:03:58;22.06;60.18
63976;DHT22;50167;47.958;21.780;2023-06-26T00:06:25;21.30;61.34
63976;DHT22;50167;47.958;21.780;2023-06-26T00:08:53;20.76;63.00
63976;DHT22;50167;47.958;21.780;2023-06-26T00:11:21;20.97;64.32
63976;DHT22;50167;47.958;21.780;2023-06-26T00:13:47;21.80;63.96
63976;DHT22;50167;47.958;21.780;2023-06-26T00:16:14;22.41;62.43
63976;DHT22;50167;47.958;21.780;2023-06-26T00:18:40;22.82;61.28
63976;DHT22;50167;47.958;21.780;2023-06-26T00:21:06;23.12;60.48
63976;DHT22;50167;47.958;21.780;2023-06-26T00:23:33;23.33;59.34
63976;DHT22;50167;47.958;21.780;2023-06-26T00:26:01;23.03;58.58
63976;DHT22;50167;47.958;21.780;2023-06-26T00:28:27;22.17;60.05
63976;DHT22;50167;47.958;21.780;2023-06-26T00:30:53;21.49;62.12
63976;DHT22;50167;47.958;21.780;2023-06-26T00:33:19;21.57;63.84
63976;DHT22;50167;47.958;21.780;2023-06-26T00:35:45;22.33;62.35
63976;DHT22;50167;47.958;21.780;2023-06-26T00:38:11;22.76;60.92
63976;DHT22;50167;47.958;21.780;2023-06-26T00:40:38;22.96;60.17
63976;DHT22;50167;47.958;21.780;2023-06-26T00:43:04;23.18;59.91
63976;DHT22;50167;47.958;21.780;2023-06-26T00:45:30;23.34;59.31
63976;DHT22;50167;47.958;21.780;2023-06-26T00:47:56;22.96;58.76
63976;DHT22;50167;47.958;21.780;2023-06-26T00:50:22;22.05;60.28
63976;DHT22;50167;47.958;21.780;2023-06-26T00:52:49;21.21;62.08
63976;DHT22;50167;47.958;21.780;2023-06-26T00:55:16;20.55;64.23
63976;DHT22;50167;47.958;21.780;2023-06-26T00:57:42;20.84;66.19
63976;DHT22;50167;47.958;21.780;2023-06-26T01:00:12;21.68;64.87
63976;DHT22;50167;47.958;21.780;2023-06-26T01:02:38;22.24;63.20
63976;DHT22;50167;47.958;21.780;2023-06-26T01:05:06;22.62;61.86
63976;DHT22;50167;47.958;21.780;2023-06-26T01:07:35;22.86;60.60
63976;DHT22;50167;47.958;21.780;2023-06-26T01:10:04;23.03;60.42
63976;DHT22;50167;47.958;21.780;2023-06-26T01:12:32;23.12;59.82
63976;DHT22;50167;47.958;21.780;2023-06-26T01:14:59;23.16;59.60
63976;DHT22;50167;47.958;21.780;2023-06-26T01:17:28;22.81;59.00
63976;DHT22;50167;47.958;21.780;2023-06-26T01:19:59;21.88;60.80
63976;DHT22;50167;47.958;21.780;2023-06-26T01:22:43;21.14;62.45
63976;DHT22;50167;47.958;21.780;2023-06-26T01:28:06;22.38;62.54
63976;DHT22;50167;47.958;21.780;2023-06-26T01:30:37;22.92;60.54
63976;DHT22;50167;47.958;21.780;2023-06-26T01:33:03;23.15;59.38
63976;DHT22;50167;47.958;21.780;2023-06-26T01:35:30;22.74;58.65
63976;DHT22;50167;47.958;21.780;2023-06-26T01:38:18;21.79;60.37
63976;DHT22;50167;47.958;21.780;2023-06-26T01:40:44;20.87;62.66
63976;DHT22;50167;47.958;21.780;2023-06-26T01:46:09;21.73;63.27
63976;DHT22;50167;47.958;21.780;2023-06-26T01:48:55;22.07;62.18
63976;DHT22;50167;47.958;21.780;2023-06-26T01:51:22;22.43;61.68
63976;DHT22;50167;47.958;21.780;2023-06-26T01:53:53;22.74;61.07
63976;DHT22;50167;47.958;21.780;2023-06-26T01:56:20;22.95;60.36
63976;DHT22;50167;47.958;21.780;2023-06-26T01:58:48;23.15;59.43
63976;DHT22;50167;47.958;21.780;2023-06-26T02:01:15;22.76;59.07
63976;DHT22;50167;47.958;21.780;2023-06-26T02:03:42;21.88;61.02
63976;DHT22;50167;47.958;21.780;2023-06-26T02:06:08;21.13;62.89
63976;DHT22;50167;47.958;21.780;2023-06-26T02:08:36;21.40;64.41
63976;DHT22;50167;47.958;21.780;2023-06-26T02:11:02;22.23;63.03
63976;DHT22;50167;47.958;21.780;2023-06-26T02:13:28;22.75;61.39
63976;DHT22;50167;47.958;21.780;2023-06-26T02:15:54;23.09;60.24
63976;DHT22;50167;47.958;21.780;2023-06-26T02:18:21;23.25;59.28
63976;DHT22;50167;47.958;21.780;2023-06-26T02:20:49;22.88;58.33
63976;DHT22;50167;47.958;21.780;2023-06-26T02:23:15;21.95;60.27
63976;DHT22;50167;47.958;21.780;2023-06-26T02:25:41;21.17;62.42
63976;DHT22;50167;47.958;21.780;2023-06-26T02:28:07;21.45;64.58
63976;DHT22;50167;47.958;21.780;2023-06-26T02:30:33;22.34;62.86
63976;DHT22;50167;47.958;21.780;2023-06-26T02:32:59;22.83;61.07
63976;DHT22;50167;47.958;21.780;2023-06-26T02:35:26;23.16;59.73
63976;DHT22;50167;47.958;21.780;2023-06-26T02:37:52;23.29;59.17
63976;DHT22;50167;47.958;21.780;2023-06-26T02:40:18;22.85;58.78
63976;DHT22;50167;47.958;21.780;2023-06-26T02:42:44;21.89;60.24
63976;DHT22;50167;47.958;21.780;2023-06-26T02:45:10;21.14;62.51
63976;DHT22;50167;47.958;21.780;2023-06-26T02:47:37;21.34;64.50
63976;DHT22;50167;47.958;21.780;2023-06-26T02:50:07;22.23;62.89
63976;DHT22;50167;47.958;21.780;2023-06-26T02:52:34;22.72;61.16
63976;DHT22;50167;47.958;21.780;2023-06-26T02:55:01;23.00;60.29
63976;DHT22;50167;47.958;21.780;2023-06-26T02:57:27;23.16;59.75
63976;DHT22;50167;47.958;21.780;2023-06-26T02:59:53;23.22;59.15
63976;DHT22;50167;47.958;21.780;2023-06-26T03:02:19;22.78;58.70
63976;DHT22;50167;47.958;21.780;2023-06-26T03:04:45;21.80;60.77
63976;DHT22;50167;47.958;21.780;2023-06-26T03:07:11;21.06;62.92
63976;DHT22;50167;47.958;21.780;2023-06-26T03:09:38;21.24;64.84
63976;DHT22;50167;47.958;21.780;2023-06-26T03:12:04;22.12;63.28
63976;DHT22;50167;47.958;21.780;2023-06-26T03:14:30;22.58;61.51
63976;DHT22;50167;47.958;21.780;2023-06-26T03:16:57;22.81;60.74
63976;DHT22;50167;47.958;21.780;2023-06-26T03:19:25;23.00;60.04
63976;DHT22;50167;47.958;21.780;2023-06-26T03:21:51;23.05;59.71
63976;DHT22;50167;47.958;21.780;2023-06-26T03:24:17;23.16;59.23
63976;DHT22;50167;47.958;21.780;2023-06-26T03:26:43;22.81;58.52
63976;DHT22;50167;47.958;21.780;2023-06-26T03:29:10;21.83;60.26
63976;DHT22;50167;47.958;21.780;2023-06-26T03:31:36;21.04;62.62
63976;DHT22;50167;47.958;21.780;2023-06-26T03:34:02;21.00;64.54
63976;DHT22;50167;47.958;21.780;2023-06-26T03:36:29;21.59;63.80
63976;DHT22;50167;47.958;21.780;2023-06-26T03:38:55;22.00;62.41
63976;DHT22;50167;47.958;21.780;2023-06-26T03:41:23;22.28;61.63
63976;DHT22;50167;47.958;21.780;2023-06-26T03:43:50;22.52;60.79
63976;DHT22;50167;47.958;21.780;2023-06-26T03:46:16;22.67;60.28
63976;DHT22;50167;47.958;21.780;2023-06-26T03:48:42;22.68;60.21
63976;DHT22;50167;47.958;21.780;2023-06-26T03:51:08;22.75;60.04
63976;DHT22;50167;47.958;21.780;2023-06-26T03:53:34;22.92;59.62
63976;DHT22;50167;47.958;21.780;2023-06-26T03:56:01;23.07;59.26
63976;DHT22;50167;47.958;21.780;2023-06-26T03:58:27;22.67;59.09
63976;DHT22;50167;47.958;21.780;2023-06-26T04:00:53;21.78;60.68
63976;DHT22;50167;47.958;21.780;2023-06-26T04:03:19;21.07;62.88
63976;DHT22;50167;47.958;21.780;2023-06-26T04:05:45;21.30;64.79
63976;DHT22;50167;47.958;21.780;2023-06-26T04:08:12;22.14;63.81
63976;DHT22;50167;47.958;21.780;2023-06-26T04:10:39;22.72;61.79
63976;DHT22;50167;47.958;21.780;2023-06-26T04:13:05;22.81;60.91
63976;DHT22;50167;47.958;21.780;2023-06-26T04:15:31;22.91;61.21
63976;DHT22;50167;47.958;21.780;2023-06-26T04:17:57;23.12;60.63
63976;DHT22;50167;47.958;21.780;2023-06-26T04:20:23;23.37;60.22
63976;DHT22;50167;47.958;21.780;2023-06-26T04:22:49;23.62;59.44
63976;DHT22;50167;47.958;21.780;2023-06-26T04:25:15;23.40;59.23
63976;DHT22;50167;47.958;21.780;2023-06-26T04:27:42;22.70;60.35
63976;DHT22;50167;47.958;21.780;2023-06-26T04:30:10;22.10;61.78
63976;DHT22;50167;47.958;21.780;2023-06-26T04:32:38;21.64;63.33
63976;DHT22;50167;47.958;21.780;2023-06-26T04:35:05;22.07;64.50
63976;DHT22;50167;47.958;21.780;2023-06-26T04:37:31;22.86;63.18
63976;DHT22;50167;47.958;21.780;2023-06-26T04:39:57;23.39;62.04
63976;DHT22;50167;47.958;21.780;2023-06-26T04:42:23;23.77;60.85
63976;DHT22;50167;47.958;21.780;2023-06-26T04:44:49;24.05;60.41
63976;DHT22;50167;47.958;21.780;2023-06-26T04:47:15;24.33;59.58
63976;DHT22;50167;47.958;21.780;2023-06-26T04:49:42;24.13;59.09
63976;DHT22;50167;47.958;21.780;2023-06-26T04:52:10;23.44;60.11
63976;DHT22;50167;47.958;21.780;2023-06-26T04:54:38;22.96;62.03
63976;DHT22;50167;47.958;21.780;2023-06-26T04:57:05;22.61;62.92
63976;DHT22;50167;47.958;21.780;2023-06-26T04:59:31;23.06;63.40
63976;DHT22;50167;47.958;21.780;2023-06-26T05:01:57;24.06;61.42
63976;DHT22;50167;47.958;21.780;2023-06-26T05:04:24;24.78;58.98
63976;DHT22;50167;47.958;21.780;2023-06-26T05:06:52;24.67;57.54
63976;DHT22;50167;47.958;21.780;2023-06-26T05:09:18;24.04;59.15
63976;DHT22;50167;47.958;21.780;2023-06-26T05:15:45;23.02;62.48
63976;DHT22;50167;47.958;21.780;2023-06-26T05:18:12;23.22;62.21
63976;DHT22;50167;47.958;21.780;2023-06-26T05:20:39;23.91;61.21
63976;DHT22;50167;47.958;21.780;2023-06-26T05:23:05;24.53;58.81
63976;DHT22;50167;47.958;21.780;2023-06-26T05:25:33;24.52;58.57
63976;DHT22;50167;47.958;21.780;2023-06-26T05:28:00;23.94;59.93
63976;DHT22;50167;47.958;21.780;2023-06-26T05:30:27;23.53;60.92
63976;DHT22;50167;47.958;21.780;2023-06-26T05:32:54;23.23;62.58
63976;DHT22;50167;47.958;21.780;2023-06-26T05:35:21;23.78;61.46
63976;DHT22;50167;47.958;21.780;2023-06-26T05:37:49;24.70;58.81
63976;DHT22;50167;47.958;21.780;2023-06-26T05:40:17;24.73;58.21
63976;DHT22;50167;47.958;21.780;2023-06-26T05:42:45;24.25;59.22
63976;DHT22;50167;47.958;21.780;2023-06-26T05:45:12;23.80;61.00
63976;DHT22;50167;47.958;21.780;2023-06-26T05:47:38;23.47;61.54
63976;DHT22;50167;47.958;21.780;2023-06-26T05:50:06;23.26;62.53
63976;DHT22;50167;47.958;21.780;2023-06-26T05:52:33;23.78;62.52
63976;DHT22;50167;47.958;21.780;2023-06-26T05:55:00;24.63;59.17
63976;DHT22;50167;47.958;21.780;2023-06-26T05:57:29;24.81;58.45
63976;DHT22;50167;47.958;21.780;2023-06-26T05:59:56;24.38;59.75
63976;DHT22;50167;47.958;21.780;2023-06-26T06:02:22;23.99;59.88
63976;DHT22;50167;47.958;21.780;2023-06-26T06:04:49;23.75;61.09
63976;DHT22;50167;47.958;21.780;2023-06-26T06:07:15;23.62;61.75
63976;DHT22;50167;47.958;21.780;2023-06-26T06:09:41;23.51;61.97
63976;DHT22;50167;47.958;21.780;2023-06-26T06:12:08;24.44;60.48
63976;DHT22;50167;47.958;21.780;2023-06-26T06:14:34;25.33;57.22
63976;DHT22;50167;47.958;21.780;2023-06-26T06:17:01;25.32;56.92
63976;DHT22;50167;47.958;21.780;2023-06-26T06:19:28;24.88;58.17
63976;DHT22;50167;47.958;21.780;2023-06-26T06:21:54;24.57;58.95
63976;DHT22;50167;47.958;21.780;2023-06-26T06:24:20;24.40;59.95
63976;DHT22;50167;47.958;21.780;2023-06-26T06:26:46;24.30;60.26
63976;DHT22;50167;47.958;21.780;2023-06-26T06:29:13;24.22;59.87
63976;DHT22;50167;47.958;21.780;2023-06-26T06:31:39;24.19;60.39
63976;DHT22;50167;47.958;21.780;2023-06-26T06:34:05;24.17;59.80
63976;DHT22;50167;47.958;21.780;2023-06-26T06:36:31;24.12;59.84
63976;DHT22;50167;47.958;21.780;2023-06-26T06:38:57;24.05;60.06
63976;DHT22;50167;47.958;21.780;2023-06-26T06:41:24;24.05;59.90
63976;DHT22;50167;47.958;21.780;2023-06-26T06:43:50;24.05;60.48
63976;DHT22;50167;47.958;21.780;2023-06-26T06:46:17;24.11;60.31
63976;DHT22;50167;47.958;21.780;2023-06-26T06:48:43;24.12;60.13
63976;DHT22;50167;47.958;21.780;2023-06-26T06:51:09;24.08;59.94
63976;DHT22;50167;47.958;21.780;2023-06-26T06:53:35;24.04;60.62
63976;DHT22;50167;47.958;21.780;2023-06-26T06:56:02;24.05;60.64
63976;DHT22;50167;47.958;21.780;2023-06-26T06:58:28;24.08;60.64
63976;DHT22;50167;47.958;21.780;2023-06-26T07:00:54;24.19;61.29
63976;DHT22;50167;47.958;21.780;2023-06-26T07:03:21;24.22;60.55
63976;DHT22;50167;47.958;21.780;2023-06-26T07:05:48;24.15;60.43
63976;DHT22;50167;47.958;21.780;2023-06-26T07:08:14;24.16;60.88
63976;DHT22;50167;47.958;21.780;2023-06-26T07:10:40;24.25;61.60
63976;DHT22;50167;47.958;21.780;2023-06-26T07:13:06;24.39;61.35
63976;DHT22;50167;47.958;21.780;2023-06-26T07:15:32;24.44;61.25
63976;DHT22;50167;47.958;21.780;2023-06-26T07:21:59;24.84;60.74
63976;DHT22;50167;47.958;21.780;2023-06-26T07:24:25;25.02;59.41
63976;DHT22;50167;47.958;21.780;2023-06-26T07:26:51;25.22;59.07
63976;DHT22;50167;47.958;21.780;2023-06-26T07:29:17;25.35;59.10
63976;DHT22;50167;47.958;21.780;2023-06-26T07:31:43;25.42;58.40
63976;DHT22;50167;47.958;21.780;2023-06-26T07:34:11;25.49;57.26
63976;DHT22;50167;47.958;21.780;2023-06-26T07:36:37;25.55;57.47
63976;DHT22;50167;47.958;21.780;2023-06-26T07:39:03;25.60;57.15
63976;DHT22;50167;47.958;21.780;2023-06-26T07:41:29;25.69;56.94
63976;DHT22;50167;47.958;21.780;2023-06-26T07:43:58;25.73;56.49
63976;DHT22;50167;47.958;21.780;2023-06-26T07:46:25;25.80;57.09
63976;DHT22;50167;47.958;21.780;2023-06-26T07:48:51;25.84;56.12
63976;DHT22;50167;47.958;21.780;2023-06-26T07:51:17;25.94;55.52
63976;DHT22;50167;47.958;21.780;2023-06-26T07:53:43;26.08;55.18
63976;DHT22;50167;47.958;21.780;2023-06-26T07:56:10;26.25;55.68
63976;DHT22;50167;47.958;21.780;2023-06-26T07:58:36;26.41;55.86
63976;DHT22;50167;47.958;21.780;2023-06-26T08:01:02;26.48;55.24
63976;DHT22;50167;47.958;21.780;2023-06-26T08:03:29;26.43;55.47
63976;DHT22;50167;47.958;21.780;2023-06-26T08:05:55;26.48;56.34
63976;DHT22;50167;47.958;21.780;2023-06-26T08:08:21;26.59;56.01
63976;DHT22;50167;47.958;21.780;2023-06-26T08:10:47;26.64;54.86
63976;DHT22;50167;47.958;21.780;2023-06-26T08:13:13;26.73;55.23
63976;DHT22;50167;47.958;21.780;2023-06-26T08:15:39;26.79;54.94
63976;DHT22;50167;47.958;21.780;2023-06-26T08:18:06;26.86;54.30
63976;DHT22;50167;47.958;21.780;2023-06-26T08:20:32;26.93;54.18
63976;DHT22;50167;47.958;21.780;2023-06-26T08:22:58;26.99;55.00
63976;DHT22;50167;47.958;21.780;2023-06-26T08:25:24;27.07;54.20
63976;DHT22;50167;47.958;21.780;2023-06-26T08:27:51;27.07;53.15
63976;DHT22;50167;47.958;21.780;2023-06-26T08:30:18;27.14;54.36
63976;DHT22;50167;47.958;21.780;2023-06-26T08:32:44;27.25;53.86
63976;DHT22;50167;47.958;21.780;2023-06-26T08:35:11;27.34;53.38
63976;DHT22;50167;47.958;21.780;2023-06-26T08:37:47;27.44;53.75
63976;DHT22;50167;47.958;21.780;2023-06-26T08:40:17;27.57;53.39
63976;DHT22;50167;47.958;21.780;2023-06-26T08:42:44;27.65;52.57
63976;DHT22;50167;47.958;21.780;2023-06-26T08:45:11;27.69;52.36
63976;DHT22;50167;47.958;21.780;2023-06-26T08:47:38;27.71;52.44
63976;DHT22;50167;47.958;21.780;2023-06-26T08:50:12;27.71;51.60
63976;DHT22;50167;47.958;21.780;2023-06-26T08:56:09;27.73;52.12
63976;DHT22;50167;47.958;21.780;2023-06-26T08:58:37;27.73;51.82
63976;DHT22;50167;47.958;21.780;2023-06-26T09:01:04;27.86;51.22
63976;DHT22;50167;47.958;21.780;2023-06-26T09:03:32;27.90;51.65
63976;DHT22;50167;47.958;21.780;2023-06-26T09:05:59;27.95;51.69
63976;DHT22;50167;47.958;21.780;2023-06-26T09:08:29;28.00;50.86
63976;DHT22;50167;47.958;21.780;2023-06-26T09:10:53;28.04;50.03
63976;DHT22;50167;47.958;21.780;2023-06-26T09:13:20;28.16;49.50
63976;DHT22;50167;47.958;21.780;2023-06-26T09:15:46;28.26;49.25
63976;DHT22;50167;47.958;21.780;2023-06-26T09:18:13;28.31;48.61
63976;DHT22;50167;47.958;21.780;2023-06-26T09:20:41;28.30;48.26
63976;DHT22;50167;47.958;21.780;2023-06-26T09:23:07;28.30;47.92
63976;DHT22;50167;47.958;21.780;2023-06-26T09:25:34;28.40;48.06
63976;DHT22;50167;47.958;21.780;2023-06-26T09:28:02;28.43;47.01
63976;DHT22;50167;47.958;21.780;2023-06-26T09:30:28;28.23;46.65
63976;DHT22;50167;47.958;21.780;2023-06-26T09:32:56;28.00;47.94
63976;DHT22;50167;47.958;21.780;2023-06-26T09:35:23;28.04;48.21
63976;DHT22;50167;47.958;21.780;2023-06-26T09:37:51;28.12;46.90
63976;DHT22;50167;47.958;21.780;2023-06-26T09:40:18;28.17;46.96
63976;DHT22;50167;47.958;21.780;2023-06-26T09:42:44;28.33;47.14
63976;DHT22;50167;47.958;21.780;2023-06-26T09:45:17;28.52;47.51
63976;DHT22;50167;47.958;21.780;2023-06-26T09:47:44;28.74;47.27
63976;DHT22;50167;47.958;21.780;2023-06-26T09:50:22;28.89;45.89
63976;DHT22;50167;47.958;21.780;2023-06-26T09:52:51;29.10;44.40
63976;DHT22;50167;47.958;21.780;2023-06-26T09:55:19;29.23;44.98
63976;DHT22;50167;47.958;21.780;2023-06-26T09:57:50;29.37;44.77
63976;DHT22;50167;47.958;21.780;2023-06-26T10:00:17;29.54;43.26
63976;DHT22;50167;47.958;21.780;2023-06-26T10:02:44;29.71;42.15
63976;DHT22;50167;47.958;21.780;2023-06-26T10:05:11;29.87;42.74
63976;DHT22;50167;47.958;21.780;2023-06-26T10:07:38;29.94;43.14
63976;DHT22;50167;47.958;21.780;2023-06-26T10:10:11;29.99;42.04
63976;DHT22;50167;47.958;21.780;2023-06-26T10:12:38;29.95;42.71
63976;DHT22;50167;47.958;21.780;2023-06-26T10:15:04;29.89;41.66
63976;DHT22;50167;47.958;21.780;2023-06-26T10:17:37;29.88;41.64
63976;DHT22;50167;47.958;21.780;2023-06-26T10:20:06;29.95;43.17
63976;DHT22;50167;47.958;21.780;2023-06-26T10:22:46;30.02;42.28
63976;DHT22;50167;47.958;21.780;2023-06-26T10:25:19;30.08;42.15
63976;DHT22;50167;47.958;21.780;2023-06-26T10:27:51;30.15;41.48
63976;DHT22;50167;47.958;21.780;2023-06-26T10:30:22;30.29;41.28
63976;DHT22;50167;47.958;21.780;2023-06-26T10:32:50;30.47;39.92
63976;DHT22;50167;47.958;21.780;2023-06-26T10:35:17;30.54;40.43
63976;DHT22;50167;47.958;21.780;2023-06-26T10:42:34;29.94;42.02
63976;DHT22;50167;47.958;21.780;2023-06-26T10:44:58;29.83;40.41
63976;DHT22;50167;47.958;21.780;2023-06-26T10:47:32;29.87;40.62
63976;DHT22;50167;47.958;21.780;2023-06-26T10:50:20;29.96;41.22
63976;DHT22;50167;47.958;21.780;2023-06-26T10:56:50;29.89;40.68
63976;DHT22;50167;47.958;21.780;2023-06-26T10:59:21;29.95;41.70
63976;DHT22;50167;47.958;21.780;2023-06-26T11:02:04;30.01;42.59
63976;DHT22;50167;47.958;21.780;2023-06-26T11:04:46;30.19;40.02
63976;DHT22;50167;47.958;21.780;2023-06-26T11:10:01;30.26;41.03
63976;DHT22;50167;47.958;21.780;2023-06-26T11:12:43;29.91;41.65
63976;DHT22;50167;47.958;21.780;2023-06-26T11:15:13;29.64;42.27
63976;DHT22;50167;47.958;21.780;2023-06-26T11:17:42;29.60;41.16
63976;DHT22;50167;47.958;21.780;2023-06-26T11:20:11;29.72;41.07
63976;DHT22;50167;47.958;21.780;2023-06-26T11:22:39;29.85;39.98
63976;DHT22;50167;47.958;21.780;2023-06-26T11:25:07;30.05;39.31
63976;DHT22;50167;47.958;21.780;2023-06-26T11:27:41;30.27;39.13
63976;DHT22;50167;47.958;21.780;2023-06-26T11:30:11;30.49;39.79
63976;DHT22;50167;47.958;21.780;2023-06-26T11:32:38;30.63;39.61
63976;DHT22;50167;47.958;21.780;2023-06-26T11:35:07;30.64;38.50
63976;DHT22;50167;47.958;21.780;2023-06-26T11:37:35;30.70;39.92
63976;DHT22;50167;47.958;21.780;2023-06-26T11:40:19;30.88;37.01
63976;DHT22;50167;47.958;21.780;2023-06-26T11:42:46;31.04;38.56
63976;DHT22;50167;47.958;21.780;2023-06-26T11:45:12;31.11;37.78
63976;DHT22;50167;47.958;21.780;2023-06-26T11:47:39;31.09;37.51
63976;DHT22;50167;47.958;21.780;2023-06-26T11:50:06;31.04;37.70
63976;DHT22;50167;47.958;21.780;2023-06-26T11:52:33;31.09;36.83
63976;DHT22;50167;47.958;21.780;2023-06-26T11:54:59;31.24;36.49
63976;DHT22;50167;47.958;21.780;2023-06-26T11:57:25;31.40;36.76
63976;DHT22;50167;47.958;21.780;2023-06-26T11:59:51;31.52;37.69
63976;DHT22;50167;47.958;21.780;2023-06-26T12:02:18;31.63;36.44
63976;DHT22;50167;47.958;21.780;2023-06-26T12:04:44;31.56;35.88
63976;DHT22;50167;47.958;21.780;2023-06-26T12:07:12;31.54;34.89
63976;DHT22;50167;47.958;21.780;2023-06-26T12:09:45;31.56;36.32
63976;DHT22;50167;47.958;21.780;2023-06-26T12:12:13;31.65;37.23
63976;DHT22;50167;47.958;21.780;2023-06-26T12:14:40;31.56;35.67
63976;DHT22;50167;47.958;21.780;2023-06-26T12:17:13;31.15;36.50
63976;DHT22;50167;47.958;21.780;2023-06-26T12:19:46;30.80;37.04
63976;DHT22;50167;47.958;21.780;2023-06-26T12:22:19;30.64;37.33
63976;DHT22;50167;47.958;21.780;2023-06-26T12:24:47;30.60;37.09
63976;DHT22;50167;47.958;21.780;2023-06-26T12:27:15;30.57;37.02
63976;DHT22;50167;47.958;21.780;2023-06-26T12:29:53;30.61;37.39
63976;DHT22;50167;47.958;21.780;2023-06-26T12:32:23;30.87;37.26
63976;DHT22;50167;47.958;21.780;2023-06-26T12:34:51;31.21;36.68
63976;DHT22;50167;47.958;21.780;2023-06-26T12:37:17;31.24;36.03
63976;DHT22;50167;47.958;21.780;2023-06-26T12:39:56;31.15;36.83
63976;DHT22;50167;47.958;21.780;2023-06-26T12:42:28;31.19;36.40
63976;DHT22;50167;47.958;21.780;2023-06-26T12:44:55;31.12;36.97
63976;DHT22;50167;47.958;21.780;2023-06-26T12:47:27;31.22;37.50
63976;DHT22;50167;47.958;21.780;2023-06-26T12:49:53;31.42;36.18
63976;DHT22;50167;47.958;21.780;2023-06-26T12:52:21;31.75;37.11
63976;DHT22;50167;47.958;21.780;2023-06-26T12:54:53;32.31;35.68
63976;DHT22;50167;47.958;21.780;2023-06-26T12:57:20;32.93;35.13
63976;DHT22;50167;47.958;21.780;2023-06-26T12:59:52;33.61;33.95
63976;DHT22;50167;47.958;21.780;2023-06-26T13:02:18;34.18;32.78
63976;DHT22;50167;47.958;21.780;2023-06-26T13:04:44;34.71;31.76
63976;DHT22;50167;47.958;21.780;2023-06-26T13:07:11;35.14;30.09
63976;DHT22;50167;47.958;21.780;2023-06-26T13:09:38;35.62;30.22
63976;DHT22;50167;47.958;21.780;2023-06-26T13:12:06;35.90;30.14
63976;DHT22;50167;47.958;21.780;2023-06-26T13:14:33;35.70;29.84
63976;DHT22;50167;47.958;21.780;2023-06-26T13:17:01;35.64;29.49
63976;DHT22;50167;47.958;21.780;2023-06-26T13:19:27;35.84;29.42
63976;DHT22;50167;47.958;21.780;2023-06-26T13:21:54;36.08;28.81
63976;DHT22;50167;47.958;21.780;2023-06-26T13:24:20;36.28;29.37
63976;DHT22;50167;47.958;21.780;2023-06-26T13:26:47;36.56;28.91
63976;DHT22;50167;47.958;21.780;2023-06-26T13:29:13;36.79;27.58
63976;DHT22;50167;47.958;21.780;2023-06-26T13:31:39;36.93;27.85
63976;DHT22;50167;47.958;21.780;2023-06-26T13:34:22;37.16;28.95
63976;DHT22;50167;47.958;21.780;2023-06-26T13:36:49;37.45;28.27
63976;DHT22;50167;47.958;21.780;2023-06-26T13:39:15;37.71;27.99
63976;DHT22;50167;47.958;21.780;2023-06-26T13:41:42;38.05;27.53
63976;DHT22;50167;47.958;21.780;2023-06-26T13:44:08;38.27;25.87
63976;DHT22;50167;47.958;21.780;2023-06-26T13:46:34;38.49;26.74
63976;DHT22;50167;47.958;21.780;2023-06-26T13:49:00;38.88;27.10
63976;DHT22;50167;47.958;21.780;2023-06-26T13:51:26;39.14;27.14
63976;DHT22;50167;47.958;21.780;2023-06-26T13:53:52;39.26;26.99
63976;DHT22;50167;47.958;21.780;2023-06-26T13:56:19;39.38;26.56
63976;DHT22;50167;47.958;21.780;2023-06-26T13:58:50;39.39;25.25
63976;DHT22;50167;47.958;21.780;2023-06-26T14:01:16;39.30;26.14
63976;DHT22;50167;47.958;21.780;2023-06-26T14:03:42;39.30;26.21
63976;DHT22;50167;47.958;21.780;2023-06-26T14:06:12;38.84;27.97
63976;DHT22;50167;47.958;21.780;2023-06-26T14:08:38;38.78;26.15
63976;DHT22;50167;47.958;21.780;2023-06-26T14:11:04;38.98;26.23
63976;DHT22;50167;47.958;21.780;2023-06-26T14:13:30;39.30;27.11
63976;DHT22;50167;47.958;21.780;2023-06-26T14:15:57;39.53;25.82
63976;DHT22;50167;47.958;21.780;2023-06-26T14:18:23;39.67;26.05
63976;DHT22;50167;47.958;21.780;2023-06-26T14:20:49;39.89;26.42
63976;DHT22;50167;47.958;21.780;2023-06-26T14:23:15;40.15;26.26
63976;DHT22;50167;47.958;21.780;2023-06-26T14:25:42;40.41;24.76
63976;DHT22;50167;47.958;21.780;2023-06-26T14:28:08;40.63;24.93
63976;DHT22;50167;47.958;21.780;2023-06-26T14:30:34;40.72;24.90
63976;DHT22;50167;47.958;21.780;2023-06-26T14:33:01;40.68;24.62
63976;DHT22;50167;47.958;21.780;2023-06-26T14:35:27;40.61;24.51
63976;DHT22;50167;47.958;21.780;2023-06-26T14:37:55;40.65;24.49
63976;DHT22;50167;47.958;21.780;2023-06-26T14:40:21;40.63;23.86
63976;DHT22;50167;47.958;21.780;2023-06-26T14:42:49;40.72;24.27
63976;DHT22;50167;47.958;21.780;2023-06-26T14:45:15;40.72;24.09
63976;DHT22;50167;47.958;21.780;2023-06-26T14:47:41;40.78;24.52
63976;DHT22;50167;47.958;21.780;2023-06-26T14:50:09;40.74;24.77
63976;DHT22;50167;47.958;21.780;2023-06-26T14:52:36;40.75;24.34
63976;DHT22;50167;47.958;21.780;2023-06-26T14:55:02;40.63;23.86
63976;DHT22;50167;47.958;21.780;2023-06-26T14:57:29;40.61;24.57
63976;DHT22;50167;47.958;21.780;2023-06-26T14:59:56;40.61;24.13
63976;DHT22;50167;47.958;21.780;2023-06-26T15:02:22;40.65;24.05
63976;DHT22;50167;47.958;21.780;2023-06-26T15:04:48;40.75;24.11
63976;DHT22;50167;47.958;21.780;2023-06-26T15:07:15;40.93;24.50
63976;DHT22;50167;47.958;21.780;2023-06-26T15:09:41;41.00;23.72
63976;DHT22;50167;47.958;21.780;2023-06-26T15:12:08;41.03;24.39
63976;DHT22;50167;47.958;21.780;2023-06-26T15:14:34;40.65;23.62
63976;DHT22;50167;47.958;21.780;2023-06-26T15:17:00;39.94;24.22
63976;DHT22;50167;47.958;21.780;2023-06-26T15:19:29;38.98;24.63
63976;DHT22;50167;47.958;21.780;2023-06-26T15:21:55;38.40;26.02
63976;DHT22;50167;47.958;21.780;2023-06-26T15:24:22;38.33;26.58
63976;DHT22;50167;47.958;21.780;2023-06-26T15:26:48;37.96;27.42
63976;DHT22;50167;47.958;21.780;2023-06-26T15:29:14;37.17;27.87
63976;DHT22;50167;47.958;21.780;2023-06-26T15:31:41;36.30;28.84
63976;DHT22;50167;47.958;21.780;2023-06-26T15:34:08;35.55;29.52
63976;DHT22;50167;47.958;21.780;2023-06-26T15:36:34;34.93;31.31
63976;DHT22;50167;47.958;21.780;2023-06-26T15:39:00;34.54;31.23
63976;DHT22;50167;47.958;21.780;2023-06-26T15:41:27;34.19;31.77
63976;DHT22;50167;47.958;21.780;2023-06-26T15:43:54;33.87;32.32
63976;DHT22;50167;47.958;21.780;2023-06-26T15:46:21;33.57;32.96